sensor_id;sensor_type;location;lat;lon;timestamp;P1;durP1;ratioP1;P2;durP2;ratioP2
8044;SDS011;4065;48.754;9.982;2022-11-14T00:01:05;37.20;;;25.77;;
8044;SDS011;4065;48.754;9.982;2022-11-14T00:04:07;38.83;;;25.38;;
8044;SDS011;4065;48.754;9.982;2022-11-14T00:07:09;31.90;;;24.05;;
8044;SDS011;4065;48.754;9.982;2022-11-14T00:10:12;38.92;;;25.15;;
8044;SDS011;4065;48.754;9.982;2022-11-14T00:13:14;34.72;;;24.92;;
8044;SDS011;4065;48.754;9.982;2022-11-14T00:16:17;37.13;;;24.45;;
8044;SDS011;4065;48.754;9.982;2022-11-14T00:19:18;36.13;;;25.20;;
8044;SDS011;4065;48.754;9.982;2022-11-14T00:22:20;38.55;;;25.13;;
8044;SDS011;4065;48.754;9.982;2022-11-14T00:25:23;36.15;;;25.85;;
8044;SDS011;4065;48.754;9.982;2022-11-14T00:28:25;34.15;;;24.25;;
8044;SDS011;4065;48.754;9.982;2022-11-14T00:31:26;37.20;;;25.67;;
8044;SDS011;4065;48.754;9.982;2022-11-14T00:34:28;35.70;;;23.48;;
8044;SDS011;4065;48.754;9.982;2022-11-14T00:37:29;36.63;;;24.55;;
8044;SDS011;4065;48.754;9.982;2022-11-14T00:40:32;33.92;;;23.17;;
8044;SDS011;4065;48.754;9.982;2022-11-14T00:43:34;37.65;;;24.50;;
8044;SDS011;4065;48.754;9.982;2022-11-14T00:46:35;36.78;;;25.40;;
8044;SDS011;4065;48.754;9.982;2022-11-14T00:49:37;33.72;;;23.17;;
8044;SDS011;4065;48.754;9.982;2022-11-14T00:52:39;31.77;;;22.48;;
8044;SDS011;4065;48.754;9.982;2022-11-14T00:55:41;38.47;;;24.10;;
8044;SDS011;4065;48.754;9.982;2022-11-14T00:58:43;34.28;;;22.67;;
8044;SDS011;4065;48.754;9.982;2022-11-14T01:01:45;39.88;;;25.10;;
8044;SDS011;4065;48.754;9.982;2022-11-14T01:04:46;35.15;;;23.60;;
8044;SDS011;4065;48.754;9.982;2022-11-14T01:07:48;35.88;;;23.80;;
8044;SDS011;4065;48.754;9.982;2022-11-14T01:10:51;39.20;;;25.70;;
8044;SDS011;4065;48.754;9.982;2022-11-14T01:13:52;34.80;;;23.80;;
8044;SDS011;4065;48.754;9.982;2022-11-14T01:16:54;38.90;;;25.95;;
8044;SDS011;4065;48.754;9.982;2022-11-14T01:19:56;41.10;;;26.00;;
8044;SDS011;4065;48.754;9.982;2022-11-14T01:22:57;46.15;;;26.63;;
8044;SDS011;4065;48.754;9.982;2022-11-14T01:26:01;60.78;;;28.15;;
8044;SDS011;4065;48.754;9.982;2022-11-14T01:29:04;42.53;;;27.08;;
8044;SDS011;4065;48.754;9.982;2022-11-14T01:32:05;45.22;;;27.35;;
8044;SDS011;4065;48.754;9.982;2022-11-14T01:35:07;48.08;;;28.40;;
8044;SDS011;4065;48.754;9.982;2022-11-14T01:38:10;42.72;;;26.88;;
8044;SDS011;4065;48.754;9.982;2022-11-14T01:41:14;52.95;;;26.27;;
8044;SDS011;4065;48.754;9.982;2022-11-14T01:44:36;46.53;;;26.73;;
8044;SDS011;4065;48.754;9.982;2022-11-14T01:47:39;43.20;;;26.40;;
8044;SDS011;4065;48.754;9.982;2022-11-14T01:50:41;40.08;;;25.40;;
8044;SDS011;4065;48.754;9.982;2022-11-14T01:53:43;38.92;;;24.83;;
8044;SDS011;4065;48.754;9.982;2022-11-14T01:56:48;36.17;;;23.05;;
8044;SDS011;4065;48.754;9.982;2022-11-14T01:59:52;37.17;;;24.25;;
8044;SDS011;4065;48.754;9.982;2022-11-14T02:02:55;33.45;;;22.90;;
8044;SDS011;4065;48.754;9.982;2022-11-14T02:05:57;39.15;;;24.17;;
8044;SDS011;4065;48.754;9.982;2022-11-14T02:09:01;37.13;;;22.35;;
8044;SDS011;4065;48.754;9.982;2022-11-14T02:12:06;33.75;;;22.08;;
8044;SDS011;4065;48.754;9.982;2022-11-14T02:15:09;32.17;;;21.38;;
8044;SDS011;4065;48.754;9.982;2022-11-14T02:18:11;31.70;;;20.23;;
8044;SDS011;4065;48.754;9.982;2022-11-14T02:21:14;32.63;;;21.00;;
8044;SDS011;4065;48.754;9.982;2022-11-14T02:24:15;36.92;;;21.40;;
8044;SDS011;4065;48.754;9.982;2022-11-14T02:27:17;33.70;;;22.65;;
8044;SDS011;4065;48.754;9.982;2022-11-14T02:30:19;33.22;;;21.58;;
8044;SDS011;4065;48.754;9.982;2022-11-14T02:33:22;36.60;;;22.40;;
8044;SDS011;4065;48.754;9.982;2022-11-14T02:36:25;29.95;;;21.83;;
8044;SDS011;4065;48.754;9.982;2022-11-14T02:39:27;36.78;;;20.63;;
8044;SDS011;4065;48.754;9.982;2022-11-14T02:42:29;34.17;;;22.00;;
8044;SDS011;4065;48.754;9.982;2022-11-14T02:45:31;30.65;;;20.83;;
8044;SDS011;4065;48.754;9.982;2022-11-14T02:48:34;30.60;;;19.80;;
8044;SDS011;4065;48.754;9.982;2022-11-14T02:51:37;29.70;;;20.75;;
8044;SDS011;4065;48.754;9.982;2022-11-14T02:54:40;31.83;;;21.08;;
8044;SDS011;4065;48.754;9.982;2022-11-14T02:57:42;32.85;;;21.40;;
8044;SDS011;4065;48.754;9.982;2022-11-14T03:00:43;28.35;;;19.98;;
8044;SDS011;4065;48.754;9.982;2022-11-14T03:03:45;45.35;;;21.85;;
8044;SDS011;4065;48.754;9.982;2022-11-14T03:06:48;31.13;;;20.23;;
8044;SDS011;4065;48.754;9.982;2022-11-14T03:09:49;35.95;;;21.05;;
8044;SDS011;4065;48.754;9.982;2022-11-14T03:12:54;37.17;;;21.65;;
8044;SDS011;4065;48.754;9.982;2022-11-14T03:15:56;30.80;;;19.90;;
8044;SDS011;4065;48.754;9.982;2022-11-14T03:18:57;32.88;;;21.42;;
8044;SDS011;4065;48.754;9.982;2022-11-14T03:22:02;35.15;;;22.88;;
8044;SDS011;4065;48.754;9.982;2022-11-14T03:25:04;33.65;;;23.20;;
8044;SDS011;4065;48.754;9.982;2022-11-14T03:28:06;65.57;;;24.35;;
8044;SDS011;4065;48.754;9.982;2022-11-14T03:31:09;43.92;;;24.88;;
8044;SDS011;4065;48.754;9.982;2022-11-14T03:34:11;36.50;;;24.05;;
8044;SDS011;4065;48.754;9.982;2022-11-14T03:37:15;39.65;;;23.27;;
8044;SDS011;4065;48.754;9.982;2022-11-14T03:40:16;38.90;;;22.52;;
8044;SDS011;4065;48.754;9.982;2022-11-14T03:43:19;44.42;;;23.95;;
8044;SDS011;4065;48.754;9.982;2022-11-14T03:46:21;52.45;;;25.05;;
8044;SDS011;4065;48.754;9.982;2022-11-14T03:49:23;48.65;;;25.60;;
8044;SDS011;4065;48.754;9.982;2022-11-14T03:52:26;48.30;;;26.40;;
8044;SDS011;4065;48.754;9.982;2022-11-14T03:55:27;35.55;;;23.25;;
8044;SDS011;4065;48.754;9.982;2022-11-14T03:58:29;39.13;;;24.58;;
8044;SDS011;4065;48.754;9.982;2022-11-14T04:01:30;41.28;;;24.60;;
8044;SDS011;4065;48.754;9.982;2022-11-14T04:04:32;39.45;;;24.67;;
8044;SDS011;4065;48.754;9.982;2022-11-14T04:07:35;39.03;;;24.13;;
8044;SDS011;4065;48.754;9.982;2022-11-14T04:10:37;35.85;;;23.58;;
8044;SDS011;4065;48.754;9.982;2022-11-14T04:13:40;35.58;;;23.83;;
8044;SDS011;4065;48.754;9.982;2022-11-14T04:16:42;30.65;;;21.88;;
8044;SDS011;4065;48.754;9.982;2022-11-14T04:19:43;33.38;;;21.17;;
8044;SDS011;4065;48.754;9.982;2022-11-14T04:22:46;49.75;;;23.13;;
8044;SDS011;4065;48.754;9.982;2022-11-14T04:25:48;42.78;;;23.05;;
8044;SDS011;4065;48.754;9.982;2022-11-14T04:28:49;29.73;;;21.58;;
8044;SDS011;4065;48.754;9.982;2022-11-14T04:31:51;32.20;;;21.77;;
8044;SDS011;4065;48.754;9.982;2022-11-14T04:34:52;40.55;;;22.50;;
8044;SDS011;4065;48.754;9.982;2022-11-14T04:37:55;31.67;;;21.23;;
8044;SDS011;4065;48.754;9.982;2022-11-14T04:40:57;29.02;;;20.95;;
8044;SDS011;4065;48.754;9.982;2022-11-14T04:43:59;30.13;;;20.58;;
8044;SDS011;4065;48.754;9.982;2022-11-14T04:47:00;31.77;;;21.10;;
8044;SDS011;4065;48.754;9.982;2022-11-14T04:50:02;31.92;;;21.52;;
8044;SDS011;4065;48.754;9.982;2022-11-14T04:53:06;31.08;;;21.85;;
8044;SDS011;4065;48.754;9.982;2022-11-14T04:56:07;28.25;;;19.98;;
8044;SDS011;4065;48.754;9.982;2022-11-14T04:59:10;32.35;;;22.25;;
8044;SDS011;4065;48.754;9.982;2022-11-14T05:02:11;33.15;;;22.08;;
8044;SDS011;4065;48.754;9.982;2022-11-14T05:05:13;30.05;;;21.65;;
8044;SDS011;4065;48.754;9.982;2022-11-14T05:08:16;34.63;;;21.45;;
8044;SDS011;4065;48.754;9.982;2022-11-14T05:11:18;30.25;;;21.50;;
8044;SDS011;4065;48.754;9.982;2022-11-14T05:14:20;26.27;;;19.45;;
8044;SDS011;4065;48.754;9.982;2022-11-14T05:17:22;27.27;;;19.92;;
8044;SDS011;4065;48.754;9.982;2022-11-14T05:20:23;26.05;;;19.27;;
8044;SDS011;4065;48.754;9.982;2022-11-14T05:23:27;24.75;;;18.95;;
8044;SDS011;4065;48.754;9.982;2022-11-14T05:26:28;26.15;;;18.98;;
8044;SDS011;4065;48.754;9.982;2022-11-14T05:29:30;28.98;;;20.40;;
8044;SDS011;4065;48.754;9.982;2022-11-14T05:32:32;27.17;;;19.73;;
8044;SDS011;4065;48.754;9.982;2022-11-14T05:35:33;26.30;;;19.00;;
8044;SDS011;4065;48.754;9.982;2022-11-14T05:38:36;28.02;;;20.27;;
8044;SDS011;4065;48.754;9.982;2022-11-14T05:41:38;27.02;;;19.85;;
8044;SDS011;4065;48.754;9.982;2022-11-14T05:44:39;25.55;;;19.98;;
8044;SDS011;4065;48.754;9.982;2022-11-14T05:47:41;29.55;;;23.35;;
8044;SDS011;4065;48.754;9.982;2022-11-14T05:50:43;27.17;;;19.60;;
8044;SDS011;4065;48.754;9.982;2022-11-14T05:53:46;27.33;;;20.23;;
8044;SDS011;4065;48.754;9.982;2022-11-14T05:56:47;25.15;;;18.67;;
8044;SDS011;4065;48.754;9.982;2022-11-14T05:59:49;25.05;;;17.52;;
8044;SDS011;4065;48.754;9.982;2022-11-14T06:02:51;28.25;;;20.58;;
8044;SDS011;4065;48.754;9.982;2022-11-14T06:05:53;25.25;;;20.45;;
8044;SDS011;4065;48.754;9.982;2022-11-14T06:08:56;26.15;;;19.63;;
8044;SDS011;4065;48.754;9.982;2022-11-14T06:11:57;27.05;;;19.88;;
8044;SDS011;4065;48.754;9.982;2022-11-14T06:14:59;26.48;;;19.35;;
8044;SDS011;4065;48.754;9.982;2022-11-14T06:18:01;26.45;;;19.98;;
8044;SDS011;4065;48.754;9.982;2022-11-14T06:21:03;26.70;;;18.75;;
8044;SDS011;4065;48.754;9.982;2022-11-14T06:24:10;24.92;;;18.60;;
8044;SDS011;4065;48.754;9.982;2022-11-14T06:27:11;29.23;;;20.42;;
8044;SDS011;4065;48.754;9.982;2022-11-14T06:30:13;37.35;;;22.80;;
8044;SDS011;4065;48.754;9.982;2022-11-14T06:33:15;31.17;;;21.52;;
8044;SDS011;4065;48.754;9.982;2022-11-14T06:36:17;27.83;;;20.48;;
8044;SDS011;4065;48.754;9.982;2022-11-14T06:39:20;24.73;;;19.27;;
8044;SDS011;4065;48.754;9.982;2022-11-14T06:42:22;28.20;;;20.15;;
8044;SDS011;4065;48.754;9.982;2022-11-14T06:45:23;32.47;;;23.45;;
8044;SDS011;4065;48.754;9.982;2022-11-14T06:48:25;30.77;;;20.80;;
8044;SDS011;4065;48.754;9.982;2022-11-14T06:51:27;30.67;;;21.33;;
8044;SDS011;4065;48.754;9.982;2022-11-14T06:54:30;30.05;;;20.27;;
8044;SDS011;4065;48.754;9.982;2022-11-14T06:57:32;35.65;;;21.90;;
8044;SDS011;4065;48.754;9.982;2022-11-14T07:00:33;32.90;;;21.83;;
8044;SDS011;4065;48.754;9.982;2022-11-14T07:03:35;32.42;;;21.50;;
8044;SDS011;4065;48.754;9.982;2022-11-14T07:06:37;31.55;;;21.63;;
8044;SDS011;4065;48.754;9.982;2022-11-14T07:09:40;44.05;;;29.38;;
8044;SDS011;4065;48.754;9.982;2022-11-14T07:12:41;35.08;;;24.40;;
8044;SDS011;4065;48.754;9.982;2022-11-14T07:15:48;32.65;;;21.15;;
8044;SDS011;4065;48.754;9.982;2022-11-14T07:18:51;29.98;;;20.73;;
8044;SDS011;4065;48.754;9.982;2022-11-14T07:21:52;34.17;;;22.30;;
8044;SDS011;4065;48.754;9.982;2022-11-14T07:24:56;34.95;;;23.15;;
8044;SDS011;4065;48.754;9.982;2022-11-14T07:27:57;37.10;;;22.88;;
8044;SDS011;4065;48.754;9.982;2022-11-14T07:31:01;41.10;;;24.50;;
8044;SDS011;4065;48.754;9.982;2022-11-14T07:34:03;39.22;;;24.00;;
8044;SDS011;4065;48.754;9.982;2022-11-14T07:37:05;32.90;;;21.40;;
8044;SDS011;4065;48.754;9.982;2022-11-14T07:40:10;39.03;;;24.65;;
8044;SDS011;4065;48.754;9.982;2022-11-14T07:43:12;40.17;;;24.90;;
8044;SDS011;4065;48.754;9.982;2022-11-14T07:46:14;37.88;;;23.33;;
8044;SDS011;4065;48.754;9.982;2022-11-14T07:49:18;40.97;;;24.48;;
8044;SDS011;4065;48.754;9.982;2022-11-14T07:52:59;34.03;;;23.40;;
8044;SDS011;4065;48.754;9.982;2022-11-14T07:56:51;38.00;;;24.77;;
8044;SDS011;4065;48.754;9.982;2022-11-14T07:59:57;34.72;;;23.10;;
8044;SDS011;4065;48.754;9.982;2022-11-14T08:03:06;35.78;;;24.23;;
8044;SDS011;4065;48.754;9.982;2022-11-14T08:06:10;35.22;;;22.88;;
8044;SDS011;4065;48.754;9.982;2022-11-14T08:09:12;31.98;;;22.70;;
8044;SDS011;4065;48.754;9.982;2022-11-14T08:12:15;33.92;;;24.85;;
8044;SDS011;4065;48.754;9.982;2022-11-14T08:15:20;36.20;;;24.50;;
8044;SDS011;4065;48.754;9.982;2022-11-14T08:18:22;37.17;;;24.73;;
8044;SDS011;4065;48.754;9.982;2022-11-14T08:21:24;35.45;;;23.67;;
8044;SDS011;4065;48.754;9.982;2022-11-14T08:24:33;38.70;;;25.20;;
8044;SDS011;4065;48.754;9.982;2022-11-14T08:27:36;36.67;;;25.38;;
8044;SDS011;4065;48.754;9.982;2022-11-14T08:30:38;33.70;;;23.05;;
8044;SDS011;4065;48.754;9.982;2022-11-14T08:33:39;37.67;;;25.42;;
8044;SDS011;4065;48.754;9.982;2022-11-14T08:36:44;36.30;;;24.92;;
8044;SDS011;4065;48.754;9.982;2022-11-14T08:39:46;35.30;;;23.85;;
8044;SDS011;4065;48.754;9.982;2022-11-14T08:42:49;33.67;;;23.13;;
8044;SDS011;4065;48.754;9.982;2022-11-14T08:46:00;34.25;;;23.15;;
8044;SDS011;4065;48.754;9.982;2022-11-14T08:49:04;38.13;;;24.20;;
8044;SDS011;4065;48.754;9.982;2022-11-14T08:52:05;36.72;;;24.20;;
8044;SDS011;4065;48.754;9.982;2022-11-14T08:55:07;36.03;;;23.48;;
8044;SDS011;4065;48.754;9.982;2022-11-14T08:58:10;36.72;;;24.35;;
8044;SDS011;4065;48.754;9.982;2022-11-14T09:01:14;37.38;;;24.20;;
8044;SDS011;4065;48.754;9.982;2022-11-14T09:04:15;32.72;;;23.13;;
8044;SDS011;4065;48.754;9.982;2022-11-14T09:07:17;30.63;;;20.40;;
8044;SDS011;4065;48.754;9.982;2022-11-14T09:10:19;31.83;;;22.20;;
8044;SDS011;4065;48.754;9.982;2022-11-14T09:13:22;31.00;;;21.83;;
8044;SDS011;4065;48.754;9.982;2022-11-14T09:16:24;33.28;;;22.65;;
8044;SDS011;4065;48.754;9.982;2022-11-14T09:19:31;31.52;;;22.63;;
8044;SDS011;4065;48.754;9.982;2022-11-14T09:22:35;30.77;;;20.60;;
8044;SDS011;4065;48.754;9.982;2022-11-14T09:25:37;28.40;;;20.35;;
8044;SDS011;4065;48.754;9.982;2022-11-14T09:28:42;30.30;;;20.88;;
8044;SDS011;4065;48.754;9.982;2022-11-14T09:31:44;26.42;;;18.58;;
8044;SDS011;4065;48.754;9.982;2022-11-14T09:34:46;31.08;;;20.65;;
8044;SDS011;4065;48.754;9.982;2022-11-14T09:37:47;27.38;;;21.25;;
8044;SDS011;4065;48.754;9.982;2022-11-14T09:40:59;31.83;;;20.67;;
8044;SDS011;4065;48.754;9.982;2022-11-14T09:47:40;27.48;;;18.45;;
8044;SDS011;4065;48.754;9.982;2022-11-14T09:50:44;25.35;;;18.13;;
8044;SDS011;4065;48.754;9.982;2022-11-14T09:53:52;26.98;;;18.05;;
8044;SDS011;4065;48.754;9.982;2022-11-14T09:57:00;23.45;;;18.25;;
8044;SDS011;4065;48.754;9.982;2022-11-14T10:00:14;23.95;;;17.15;;
8044;SDS011;4065;48.754;9.982;2022-11-14T10:03:30;23.85;;;17.88;;
8044;SDS011;4065;48.754;9.982;2022-11-14T10:06:34;23.85;;;18.48;;
8044;SDS011;4065;48.754;9.982;2022-11-14T10:09:43;21.73;;;17.25;;
8044;SDS011;4065;48.754;9.982;2022-11-14T10:12:57;24.33;;;17.83;;
8044;SDS011;4065;48.754;9.982;2022-11-14T10:16:09;24.10;;;18.38;;
8044;SDS011;4065;48.754;9.982;2022-11-14T10:19:16;23.23;;;16.95;;
8044;SDS011;4065;48.754;9.982;2022-11-14T10:22:24;21.88;;;15.07;;
8044;SDS011;4065;48.754;9.982;2022-11-14T10:25:54;19.85;;;15.13;;
8044;SDS011;4065;48.754;9.982;2022-11-14T10:29:00;21.88;;;15.20;;
8044;SDS011;4065;48.754;9.982;2022-11-14T10:32:24;20.27;;;13.20;;
8044;SDS011;4065;48.754;9.982;2022-11-14T10:35:33;18.85;;;13.90;;
8044;SDS011;4065;48.754;9.982;2022-11-14T10:38:40;14.77;;;10.95;;
8044;SDS011;4065;48.754;9.982;2022-11-14T10:41:45;10.93;;;8.77;;
8044;SDS011;4065;48.754;9.982;2022-11-14T10:44:52;13.13;;;9.95;;
8044;SDS011;4065;48.754;9.982;2022-11-14T10:48:00;10.52;;;8.05;;
8044;SDS011;4065;48.754;9.982;2022-11-14T10:51:05;9.23;;;7.53;;
8044;SDS011;4065;48.754;9.982;2022-11-14T10:54:14;9.20;;;8.20;;
8044;SDS011;4065;48.754;9.982;2022-11-14T10:57:20;8.75;;;7.07;;
8044;SDS011;4065;48.754;9.982;2022-11-14T11:00:25;6.68;;;5.43;;
8044;SDS011;4065;48.754;9.982;2022-11-14T11:03:40;6.25;;;5.22;;
8044;SDS011;4065;48.754;9.982;2022-11-14T11:06:45;6.50;;;4.78;;
8044;SDS011;4065;48.754;9.982;2022-11-14T11:10:05;4.80;;;3.90;;
8044;SDS011;4065;48.754;9.982;2022-11-14T11:13:39;4.80;;;3.80;;
8044;SDS011;4065;48.754;9.982;2022-11-14T11:20:25;15.13;;;3.67;;
8044;SDS011;4065;48.754;9.982;2022-11-14T11:23:49;3.92;;;3.00;;
8044;SDS011;4065;48.754;9.982;2022-11-14T11:27:05;3.92;;;3.05;;
8044;SDS011;4065;48.754;9.982;2022-11-14T11:30:23;3.30;;;3.00;;
8044;SDS011;4065;48.754;9.982;2022-11-14T11:33:39;6.65;;;3.38;;
8044;SDS011;4065;48.754;9.982;2022-11-14T11:36:44;4.47;;;3.67;;
8044;SDS011;4065;48.754;9.982;2022-11-14T11:39:48;5.03;;;3.67;;
8044;SDS011;4065;48.754;9.982;2022-11-14T11:42:54;5.55;;;3.47;;
8044;SDS011;4065;48.754;9.982;2022-11-14T11:46:02;4.65;;;3.38;;
8044;SDS011;4065;48.754;9.982;2022-11-14T11:49:14;5.18;;;3.60;;
8044;SDS011;4065;48.754;9.982;2022-11-14T11:52:38;4.13;;;3.35;;
8044;SDS011;4065;48.754;9.982;2022-11-14T11:55:48;3.17;;;2.88;;
8044;SDS011;4065;48.754;9.982;2022-11-14T11:58:55;4.78;;;3.42;;
8044;SDS011;4065;48.754;9.982;2022-11-14T12:02:00;3.58;;;3.28;;
8044;SDS011;4065;48.754;9.982;2022-11-14T12:05:04;3.17;;;2.88;;
8044;SDS011;4065;48.754;9.982;2022-11-14T12:08:10;3.65;;;3.30;;
8044;SDS011;4065;48.754;9.982;2022-11-14T12:11:20;4.03;;;3.28;;
8044;SDS011;4065;48.754;9.982;2022-11-14T12:14:42;4.13;;;3.33;;
8044;SDS011;4065;48.754;9.982;2022-11-14T12:18:10;3.20;;;2.90;;
8044;SDS011;4065;48.754;9.982;2022-11-14T12:21:30;3.55;;;2.88;;
8044;SDS011;4065;48.754;9.982;2022-11-14T12:24:56;4.57;;;2.90;;
8044;SDS011;4065;48.754;9.982;2022-11-14T12:28:18;3.72;;;3.13;;
8044;SDS011;4065;48.754;9.982;2022-11-14T12:31:34;3.55;;;3.25;;
8044;SDS011;4065;48.754;9.982;2022-11-14T12:34:39;4.90;;;3.05;;
8044;SDS011;4065;48.754;9.982;2022-11-14T12:37:48;3.55;;;3.25;;
8044;SDS011;4065;48.754;9.982;2022-11-14T12:41:04;3.95;;;3.38;;
8044;SDS011;4065;48.754;9.982;2022-11-14T12:44:16;3.67;;;3.30;;
8044;SDS011;4065;48.754;9.982;2022-11-14T12:47:20;4.68;;;3.78;;
8044;SDS011;4065;48.754;9.982;2022-11-14T12:50:28;6.05;;;3.35;;
8044;SDS011;4065;48.754;9.982;2022-11-14T12:53:43;5.55;;;4.18;;
8044;SDS011;4065;48.754;9.982;2022-11-14T12:56:52;4.45;;;4.03;;
8044;SDS011;4065;48.754;9.982;2022-11-14T13:00:00;3.80;;;3.50;;
8044;SDS011;4065;48.754;9.982;2022-11-14T13:03:25;7.20;;;3.72;;
8044;SDS011;4065;48.754;9.982;2022-11-14T13:06:40;4.88;;;3.72;;
8044;SDS011;4065;48.754;9.982;2022-11-14T13:09:53;5.43;;;3.90;;
8044;SDS011;4065;48.754;9.982;2022-11-14T13:13:13;4.35;;;3.85;;
8044;SDS011;4065;48.754;9.982;2022-11-14T13:16:33;3.65;;;3.35;;
8044;SDS011;4065;48.754;9.982;2022-11-14T13:19:55;3.83;;;3.30;;
8044;SDS011;4065;48.754;9.982;2022-11-14T13:26:59;4.47;;;4.00;;
8044;SDS011;4065;48.754;9.982;2022-11-14T13:37:56;4.05;;;2.95;;
8044;SDS011;4065;48.754;9.982;2022-11-14T13:41:24;4.40;;;3.22;;
8044;SDS011;4065;48.754;9.982;2022-11-14T13:52:00;3.75;;;3.40;;
8044;SDS011;4065;48.754;9.982;2022-11-14T13:55:02;3.70;;;3.40;;
8044;SDS011;4065;48.754;9.982;2022-11-14T13:58:07;3.67;;;3.30;;
8044;SDS011;4065;48.754;9.982;2022-11-14T14:01:23;4.35;;;3.28;;
8044;SDS011;4065;48.754;9.982;2022-11-14T14:04:39;4.65;;;3.65;;
8044;SDS011;4065;48.754;9.982;2022-11-14T14:07:51;4.68;;;2.97;;
8044;SDS011;4065;48.754;9.982;2022-11-14T14:11:03;2.80;;;2.60;;
8044;SDS011;4065;48.754;9.982;2022-11-14T14:14:15;5.35;;;3.20;;
8044;SDS011;4065;48.754;9.982;2022-11-14T14:17:26;5.18;;;3.47;;
8044;SDS011;4065;48.754;9.982;2022-11-14T14:20:34;3.50;;;3.17;;
8044;SDS011;4065;48.754;9.982;2022-11-14T14:23:42;4.70;;;4.13;;
8044;SDS011;4065;48.754;9.982;2022-11-14T14:26:53;7.90;;;3.83;;
8044;SDS011;4065;48.754;9.982;2022-11-14T14:30:06;6.60;;;3.20;;
8044;SDS011;4065;48.754;9.982;2022-11-14T14:33:13;3.92;;;3.20;;
8044;SDS011;4065;48.754;9.982;2022-11-14T14:36:24;3.38;;;3.08;;
8044;SDS011;4065;48.754;9.982;2022-11-14T14:39:32;5.78;;;3.10;;
8044;SDS011;4065;48.754;9.982;2022-11-14T14:42:44;4.75;;;3.53;;
8044;SDS011;4065;48.754;9.982;2022-11-14T14:49:38;4.20;;;2.90;;
8044;SDS011;4065;48.754;9.982;2022-11-14T14:52:54;4.40;;;3.28;;
8044;SDS011;4065;48.754;9.982;2022-11-14T14:56:19;5.68;;;3.28;;
8044;SDS011;4065;48.754;9.982;2022-11-14T14:59:23;5.60;;;4.05;;
8044;SDS011;4065;48.754;9.982;2022-11-14T15:02:26;5.88;;;3.38;;
8044;SDS011;4065;48.754;9.982;2022-11-14T15:05:29;4.82;;;3.47;;
8044;SDS011;4065;48.754;9.982;2022-11-14T15:08:37;4.20;;;3.80;;
8044;SDS011;4065;48.754;9.982;2022-11-14T15:11:46;3.90;;;3.50;;
8044;SDS011;4065;48.754;9.982;2022-11-14T15:14:48;8.65;;;4.43;;
8044;SDS011;4065;48.754;9.982;2022-11-14T15:17:50;5.90;;;3.53;;
8044;SDS011;4065;48.754;9.982;2022-11-14T15:21:05;8.18;;;4.78;;
8044;SDS011;4065;48.754;9.982;2022-11-14T15:24:20;7.53;;;3.30;;
8044;SDS011;4065;48.754;9.982;2022-11-14T15:27:31;5.30;;;3.83;;
8044;SDS011;4065;48.754;9.982;2022-11-14T15:30:33;6.65;;;3.67;;
8044;SDS011;4065;48.754;9.982;2022-11-14T15:33:35;5.28;;;3.42;;
8044;SDS011;4065;48.754;9.982;2022-11-14T15:40:21;4.68;;;3.33;;
8044;SDS011;4065;48.754;9.982;2022-11-14T15:43:36;6.10;;;3.40;;
8044;SDS011;4065;48.754;9.982;2022-11-14T15:46:49;4.32;;;3.58;;
8044;SDS011;4065;48.754;9.982;2022-11-14T15:49:59;5.00;;;3.35;;
8044;SDS011;4065;48.754;9.982;2022-11-14T15:53:02;4.88;;;4.03;;
8044;SDS011;4065;48.754;9.982;2022-11-14T15:56:07;5.03;;;3.25;;
8044;SDS011;4065;48.754;9.982;2022-11-14T15:59:11;4.47;;;3.53;;
8044;SDS011;4065;48.754;9.982;2022-11-14T16:02:16;5.30;;;3.85;;
8044;SDS011;4065;48.754;9.982;2022-11-14T16:05:21;4.10;;;3.70;;
8044;SDS011;4065;48.754;9.982;2022-11-14T16:08:41;4.95;;;3.75;;
8044;SDS011;4065;48.754;9.982;2022-11-14T16:11:43;4.90;;;4.20;;
8044;SDS011;4065;48.754;9.982;2022-11-14T16:14:47;6.53;;;4.70;;
8044;SDS011;4065;48.754;9.982;2022-11-14T16:17:49;5.40;;;4.90;;
8044;SDS011;4065;48.754;9.982;2022-11-14T16:20:51;5.30;;;4.40;;
8044;SDS011;4065;48.754;9.982;2022-11-14T16:23:57;5.03;;;4.47;;
8044;SDS011;4065;48.754;9.982;2022-11-14T16:27:00;4.80;;;4.30;;
8044;SDS011;4065;48.754;9.982;2022-11-14T16:30:03;6.05;;;4.57;;
8044;SDS011;4065;48.754;9.982;2022-11-14T16:33:08;7.45;;;4.63;;
8044;SDS011;4065;48.754;9.982;2022-11-14T16:36:10;7.25;;;5.00;;
8044;SDS011;4065;48.754;9.982;2022-11-14T16:39:12;6.63;;;4.88;;
8044;SDS011;4065;48.754;9.982;2022-11-14T16:42:13;5.45;;;4.60;;
8044;SDS011;4065;48.754;9.982;2022-11-14T16:45:23;5.03;;;4.53;;
8044;SDS011;4065;48.754;9.982;2022-11-14T16:48:29;8.30;;;5.43;;
8044;SDS011;4065;48.754;9.982;2022-11-14T16:51:31;6.00;;;5.15;;
8044;SDS011;4065;48.754;9.982;2022-11-14T16:54:34;8.48;;;5.38;;
8044;SDS011;4065;48.754;9.982;2022-11-14T16:57:36;9.32;;;6.05;;
8044;SDS011;4065;48.754;9.982;2022-11-14T17:00:42;7.80;;;6.40;;
8044;SDS011;4065;48.754;9.982;2022-11-14T17:03:45;8.20;;;5.22;;
8044;SDS011;4065;48.754;9.982;2022-11-14T17:07:13;6.65;;;4.93;;
8044;SDS011;4065;48.754;9.982;2022-11-14T17:10:17;7.18;;;5.75;;
8044;SDS011;4065;48.754;9.982;2022-11-14T17:13:19;8.75;;;6.78;;
8044;SDS011;4065;48.754;9.982;2022-11-14T17:16:25;9.80;;;6.40;;
8044;SDS011;4065;48.754;9.982;2022-11-14T17:19:27;12.63;;;7.90;;
8044;SDS011;4065;48.754;9.982;2022-11-14T17:22:34;16.70;;;10.27;;
8044;SDS011;4065;48.754;9.982;2022-11-14T17:25:46;20.40;;;12.68;;
8044;SDS011;4065;48.754;9.982;2022-11-14T17:28:48;19.40;;;12.35;;
8044;SDS011;4065;48.754;9.982;2022-11-14T17:31:51;14.60;;;9.48;;
8044;SDS011;4065;48.754;9.982;2022-11-14T17:34:53;11.13;;;8.13;;
8044;SDS011;4065;48.754;9.982;2022-11-14T17:37:57;10.30;;;8.10;;
8044;SDS011;4065;48.754;9.982;2022-11-14T17:40:59;8.25;;;7.40;;
8044;SDS011;4065;48.754;9.982;2022-11-14T17:44:07;9.32;;;7.07;;
8044;SDS011;4065;48.754;9.982;2022-11-14T17:47:12;7.80;;;6.55;;
8044;SDS011;4065;48.754;9.982;2022-11-14T17:50:14;8.55;;;7.15;;
8044;SDS011;4065;48.754;9.982;2022-11-14T17:53:17;9.27;;;7.28;;
8044;SDS011;4065;48.754;9.982;2022-11-14T17:56:20;8.07;;;6.45;;
8044;SDS011;4065;48.754;9.982;2022-11-14T17:59:22;8.07;;;6.30;;
8044;SDS011;4065;48.754;9.982;2022-11-14T18:02:25;9.85;;;6.30;;
8044;SDS011;4065;48.754;9.982;2022-11-14T18:05:27;6.82;;;5.72;;
8044;SDS011;4065;48.754;9.982;2022-11-14T18:08:28;7.50;;;6.25;;
8044;SDS011;4065;48.754;9.982;2022-11-14T18:11:30;7.82;;;6.35;;
8044;SDS011;4065;48.754;9.982;2022-11-14T18:14:33;7.18;;;6.45;;
8044;SDS011;4065;48.754;9.982;2022-11-14T18:17:37;7.72;;;6.85;;
8044;SDS011;4065;48.754;9.982;2022-11-14T18:20:39;8.77;;;6.30;;
8044;SDS011;4065;48.754;9.982;2022-11-14T18:23:41;6.07;;;5.47;;
8044;SDS011;4065;48.754;9.982;2022-11-14T18:26:43;6.90;;;5.20;;
8044;SDS011;4065;48.754;9.982;2022-11-14T18:29:44;6.47;;;5.72;;
8044;SDS011;4065;48.754;9.982;2022-11-14T18:32:47;6.40;;;5.80;;
8044;SDS011;4065;48.754;9.982;2022-11-14T18:35:56;6.43;;;4.95;;
8044;SDS011;4065;48.754;9.982;2022-11-14T18:38:57;7.85;;;5.35;;
8044;SDS011;4065;48.754;9.982;2022-11-14T18:41:59;8.45;;;5.68;;
8044;SDS011;4065;48.754;9.982;2022-11-14T18:45:00;6.90;;;5.57;;
8044;SDS011;4065;48.754;9.982;2022-11-14T18:48:04;11.52;;;7.43;;
8044;SDS011;4065;48.754;9.982;2022-11-14T18:51:07;10.60;;;7.03;;
8044;SDS011;4065;48.754;9.982;2022-11-14T18:54:10;8.27;;;6.05;;
8044;SDS011;4065;48.754;9.982;2022-11-14T18:57:13;11.60;;;7.45;;
8044;SDS011;4065;48.754;9.982;2022-11-14T19:00:15;9.18;;;6.28;;
8044;SDS011;4065;48.754;9.982;2022-11-14T19:03:18;8.57;;;6.82;;
8044;SDS011;4065;48.754;9.982;2022-11-14T19:06:22;8.50;;;6.72;;
8044;SDS011;4065;48.754;9.982;2022-11-14T19:09:24;8.63;;;6.75;;
8044;SDS011;4065;48.754;9.982;2022-11-14T19:12:25;7.70;;;6.63;;
8044;SDS011;4065;48.754;9.982;2022-11-14T19:15:27;13.07;;;7.13;;
8044;SDS011;4065;48.754;9.982;2022-11-14T19:18:30;9.65;;;6.82;;
8044;SDS011;4065;48.754;9.982;2022-11-14T19:21:32;16.08;;;7.65;;
8044;SDS011;4065;48.754;9.982;2022-11-14T19:24:38;7.82;;;5.93;;